createdAt,value
2022-11-06T00:02:43.925Z,1106.26415
2022-11-06T00:07:45.635Z,1376.55814
2022-11-06T00:12:47.294Z,1704
2022-11-06T00:17:48.957Z,1704
2022-11-06T00:22:50.583Z,1755.76471
2022-11-06T00:27:52.811Z,1655.11111
2022-11-06T00:32:54.522Z,1704
2022-11-06T00:37:56.221Z,1523.48718
2022-11-06T00:42:58.054Z,1484
2022-11-06T00:47:59.758Z,1446.43902
2022-11-06T00:53:01.548Z,1484
2022-11-06T00:58:03.167Z,1410.66667
2022-11-06T01:03:04.999Z,1376.55814
2022-11-06T01:08:06.767Z,1446.43902
2022-11-06T01:13:08.399Z,1376.55814
2022-11-06T01:18:10.368Z,1283.13043
2022-11-06T01:23:12.216Z,1227.33333
2022-11-06T01:28:14.245Z,1227.33333
2022-11-06T01:33:15.969Z,1227.33333
2022-11-06T01:38:17.693Z,1201.14286
2022-11-06T01:43:19.395Z,1176
2022-11-06T01:48:21.074Z,1106.26415
2022-11-06T01:53:22.709Z,1084.74074
2022-11-06T01:58:24.304Z,1084.74074
2022-11-06T02:03:25.959Z,1176
2022-11-06T02:08:27.640Z,1151.84314
2022-11-06T02:13:29.276Z,1201.14286
2022-11-06T02:18:30.908Z,1227.33333
2022-11-06T02:23:32.525Z,1176
2022-11-06T02:28:34.353Z,1106.26415
2022-11-06T02:33:36.202Z,1084.74074
2022-11-06T02:38:37.936Z,1084.74074
2022-11-06T02:43:39.922Z,1064
2022-11-06T02:48:41.619Z,1064
2022-11-06T02:53:43.294Z,1024.70175
2022-11-06T02:58:49.040Z,1044
2022-11-06T03:03:51.319Z,1024.70175
2022-11-06T03:09:02.034Z,1106.26415
2022-11-06T03:14:03.695Z,1128.61538
2022-11-06T03:19:05.732Z,1151.84314
2022-11-06T03:24:07.427Z,1064
2022-11-06T03:29:09.054Z,1064
2022-11-06T03:34:10.851Z,1064
2022-11-06T03:39:12.879Z,1106.26415
2022-11-06T03:44:14.552Z,1064
2022-11-06T03:49:16.170Z,1024.70175
2022-11-06T03:54:17.850Z,1024.70175
2022-11-06T03:59:19.628Z,1024.70175
2022-11-06T04:04:21.418Z,1006.06897
2022-11-06T04:09:23.067Z,1044
2022-11-06T04:14:24.747Z,1044
2022-11-06T04:19:26.463Z,1084.74074
2022-11-06T04:24:28.147Z,1128.61538
2022-11-06T04:29:29.956Z,1106.26415
2022-11-06T04:34:31.666Z,1044
2022-11-06T04:39:33.365Z,1006.06897
2022-11-06T04:44:35.127Z,1024.70175
2022-11-06T04:49:36.735Z,1024.70175
2022-11-06T04:54:38.421Z,1044
2022-11-06T04:59:40.133Z,1044
2022-11-06T05:04:41.843Z,1064
2022-11-06T05:09:43.469Z,1024.70175
2022-11-06T05:14:45.184Z,1024.70175
2022-11-06T05:19:46.920Z,1024.70175
2022-11-06T05:24:48.582Z,1084.74074
2022-11-06T05:29:50.286Z,1024.70175
2022-11-06T05:34:51.932Z,1024.70175
2022-11-06T05:39:53.554Z,1024.70175
2022-11-06T05:44:55.328Z,970.66667
2022-11-06T05:49:56.973Z,970.66667
2022-11-06T05:54:58.601Z,988.0678
2022-11-06T06:00:00.272Z,1024.70175
2022-11-06T06:05:01.929Z,1064
2022-11-06T06:10:03.603Z,1064
2022-11-06T06:15:05.217Z,1044
2022-11-06T06:20:06.899Z,1064
2022-11-06T06:25:14.652Z,1128.61538
2022-11-06T06:30:23.064Z,1106.26415
2022-11-06T06:35:24.836Z,1006.06897
2022-11-06T06:40:26.725Z,1024.70175
2022-11-06T06:45:28.354Z,1084.74074
2022-11-06T06:50:30.051Z,1128.61538
2022-11-06T06:55:31.713Z,1201.14286
2022-11-06T07:00:33.373Z,1176
2022-11-06T07:05:35.040Z,1106.26415
2022-11-06T07:10:36.852Z,1128.61538
2022-11-06T07:15:38.486Z,1254.6383
2022-11-06T07:20:40.117Z,1312.88889
2022-11-06T07:25:41.728Z,1312.88889
2022-11-06T07:30:43.524Z,1201.14286
2022-11-06T07:35:45.194Z,1128.61538
2022-11-06T07:40:46.824Z,1151.84314
2022-11-06T07:45:48.592Z,1128.61538
2022-11-06T07:50:50.260Z,1128.61538
2022-11-06T07:55:51.906Z,1176
2022-11-06T08:00:53.834Z,1151.84314
2022-11-06T08:05:55.539Z,1128.61538
2022-11-06T08:10:57.424Z,1128.61538
2022-11-06T08:15:59.217Z,1151.84314
2022-11-06T08:21:00.972Z,1128.61538
2022-11-06T08:26:02.824Z,1128.61538
2022-11-06T08:31:04.402Z,1128.61538
2022-11-06T08:36:06.072Z,1106.26415
2022-11-06T08:41:07.741Z,1128.61538
2022-11-06T08:46:09.370Z,1151.84314
2022-11-06T08:51:11.153Z,1201.14286
2022-11-06T08:56:12.858Z,1176
2022-11-06T09:01:14.610Z,1128.61538
2022-11-06T09:06:16.477Z,1128.61538
2022-11-06T09:11:18.074Z,1128.61538
2022-11-06T09:16:19.674Z,1128.61538
2022-11-06T09:21:21.337Z,1106.26415
2022-11-06T09:26:23.226Z,1106.26415
2022-11-06T09:31:24.874Z,1227.33333
2022-11-06T09:36:26.532Z,1227.33333
2022-11-06T09:41:28.233Z,1176
2022-11-06T09:46:29.869Z,1128.61538
2022-11-06T09:51:31.614Z,1176
2022-11-06T09:56:33.560Z,1201.14286
2022-11-06T10:01:35.561Z,1128.61538
2022-11-06T10:06:37.423Z,1151.84314
2022-11-06T10:11:39.169Z,1128.61538
2022-11-06T10:16:40.824Z,1151.84314
2022-11-06T10:21:42.471Z,1128.61538
2022-11-06T10:26:44.197Z,1151.84314
2022-11-06T10:31:45.893Z,1106.26415
2022-11-06T10:36:50.089Z,1106.26415
2022-11-06T10:41:52.184Z,1128.61538
2022-11-06T10:46:53.822Z,1128.61538
2022-11-06T10:51:55.482Z,1106.26415
2022-11-06T10:56:57.077Z,1128.61538
2022-11-06T11:01:59.027Z,1151.84314
2022-11-06T11:07:00.782Z,1151.84314
2022-11-06T11:12:02.458Z,1128.61538
2022-11-06T11:17:04.131Z,1151.84314
2022-11-06T11:22:05.729Z,1151.84314
2022-11-06T11:27:07.353Z,1176
2022-11-06T11:32:08.990Z,1227.33333
2022-11-06T11:37:10.672Z,1227.33333
2022-11-06T11:42:12.319Z,1227.33333
2022-11-06T11:47:14.251Z,1227.33333
2022-11-06T11:52:16.042Z,1283.13043
2022-11-06T11:57:17.771Z,1312.88889
2022-11-06T12:02:25.316Z,1344
2022-11-06T12:07:28.752Z,1376.55814
2022-11-06T12:12:30.401Z,1376.55814
2022-11-06T12:17:32.113Z,1312.88889
2022-11-06T12:22:33.758Z,1227.33333
2022-11-06T12:27:35.541Z,1201.14286
2022-11-06T12:32:37.222Z,1227.33333
2022-11-06T12:37:38.840Z,1254.6383
2022-11-06T12:42:40.466Z,1151.84314
2022-11-06T12:47:42.141Z,1201.14286
2022-11-06T12:52:43.759Z,1201.14286
2022-11-06T12:57:45.392Z,1201.14286
2022-11-06T13:02:47.033Z,1227.33333
2022-11-06T13:07:48.601Z,1283.13043
2022-11-06T13:12:50.226Z,1254.6383
2022-11-06T13:17:51.930Z,1254.6383
2022-11-06T13:22:53.735Z,1176
2022-11-06T13:27:55.365Z,1176
2022-11-06T13:32:57.059Z,1312.88889
2022-11-06T13:37:58.720Z,1376.55814
2022-11-06T13:43:00.317Z,1410.66667
2022-11-06T13:48:01.977Z,1410.66667
2022-11-06T13:53:03.611Z,1410.66667
2022-11-06T13:58:05.279Z,1312.88889
2022-11-06T14:03:07.174Z,1312.88889
2022-11-06T14:08:08.816Z,1410.66667
2022-11-06T14:13:10.498Z,1376.55814
2022-11-06T14:18:12.392Z,1344
2022-11-06T14:23:14.286Z,1151.84314
2022-11-06T14:28:16.204Z,1254.6383
2022-11-06T14:33:17.931Z,1283.13043
2022-11-06T14:38:19.563Z,1254.6383
2022-11-06T14:43:22.230Z,1484
2022-11-06T14:48:24.396Z,1565.05263
2022-11-06T14:53:26.609Z,1523.48718
2022-11-06T14:58:28.354Z,1446.43902
2022-11-06T15:03:29.973Z,1523.48718
2022-11-06T15:08:31.687Z,1446.43902
2022-11-06T15:13:33.343Z,1446.43902
2022-11-06T15:18:34.970Z,1446.43902
2022-11-06T15:23:36.714Z,1446.43902
2022-11-06T15:28:38.380Z,1523.48718
2022-11-06T15:33:43.895Z,1523.48718
2022-11-06T15:38:45.688Z,1484
2022-11-06T15:43:47.481Z,1376.55814
2022-11-06T15:48:49.956Z,1376.55814
2022-11-06T15:53:51.685Z,1523.48718
2022-11-06T15:58:53.332Z,1484
2022-11-06T16:03:55.138Z,1410.66667
2022-11-06T16:08:56.791Z,1410.66667
2022-11-06T16:13:58.509Z,1344
2022-11-06T16:19:00.115Z,1254.6383
2022-11-06T16:24:01.795Z,1446.43902
2022-11-06T16:29:03.604Z,1410.66667
2022-11-06T16:34:05.352Z,1312.88889
2022-11-06T16:39:07.000Z,1312.88889
2022-11-06T16:44:08.661Z,1376.55814
2022-11-06T16:49:10.286Z,1410.66667
2022-11-06T16:54:11.903Z,1523.48718
2022-11-06T16:59:13.964Z,1655.11111
2022-11-06T17:04:15.779Z,1523.48718
2022-11-06T17:09:17.447Z,1523.48718
2022-11-06T17:14:19.083Z,1565.05263
2022-11-06T17:19:20.889Z,1565.05263
2022-11-06T17:24:36.534Z,1523.48718
2022-11-06T17:29:39.183Z,1410.66667
2022-11-06T17:34:41.063Z,1446.43902
2022-11-06T17:39:42.701Z,1376.55814
2022-11-06T17:44:44.391Z,1376.55814
2022-11-06T17:49:46.043Z,1344
2022-11-06T17:54:47.774Z,1565.05263
2022-11-06T17:59:49.548Z,1523.48718
2022-11-06T18:04:51.154Z,1484
2022-11-06T18:09:53.064Z,1376.55814
2022-11-06T18:14:54.749Z,1523.48718
2022-11-06T18:19:56.369Z,1484
2022-11-06T18:24:58.051Z,1446.43902
2022-11-06T18:29:59.763Z,1446.43902
2022-11-06T18:35:01.391Z,1410.66667
2022-11-06T18:40:03.192Z,1523.48718
2022-11-06T18:45:04.896Z,1565.05263
2022-11-06T18:50:06.557Z,1484
2022-11-06T18:55:08.266Z,1410.66667
2022-11-06T19:00:10.025Z,1608.86486
2022-11-06T19:05:11.719Z,1565.05263
2022-11-06T19:10:13.303Z,1565.05263
2022-11-06T19:15:14.990Z,1565.05263
2022-11-06T19:20:16.685Z,1523.48718
2022-11-06T19:25:18.435Z,1410.66667
2022-11-06T19:30:20.170Z,1446.43902
2022-11-06T19:35:21.786Z,1312.88889
2022-11-06T19:40:23.440Z,1283.13043
2022-11-06T19:45:25.157Z,1376.55814
2022-11-06T19:50:53.625Z,1376.55814
2022-11-06T19:56:00.744Z,1312.88889
2022-11-06T20:01:04.895Z,1410.66667
2022-11-06T20:06:08.172Z,1376.55814
2022-11-06T20:11:10.304Z,1283.13043
2022-11-06T20:16:11.929Z,1227.33333
2022-11-06T20:21:13.527Z,1344
2022-11-06T20:26:15.133Z,1376.55814
2022-11-06T20:31:16.788Z,1376.55814
2022-11-06T20:36:18.593Z,1312.88889
2022-11-06T20:41:20.215Z,1344
2022-11-06T20:46:21.902Z,1410.66667
2022-11-06T20:51:23.630Z,1376.55814
2022-11-06T20:56:25.530Z,1410.66667
2022-11-06T21:01:27.563Z,1376.55814
2022-11-06T21:06:29.378Z,1410.66667
2022-11-06T21:11:31.105Z,1283.13043
2022-11-06T21:16:32.826Z,1201.14286
2022-11-06T21:21:34.474Z,1201.14286
2022-11-06T21:26:36.160Z,1176
2022-11-06T21:31:37.788Z,1151.84314
2022-11-06T21:36:39.470Z,1128.61538
2022-11-06T21:41:41.342Z,1044
2022-11-06T21:46:45.666Z,1044
2022-11-06T21:51:47.891Z,1084.74074
2022-11-06T21:56:49.686Z,1128.61538
2022-11-06T22:01:51.482Z,1106.26415
2022-11-06T22:06:53.347Z,1176
2022-11-06T22:11:55.444Z,1151.84314
2022-11-06T22:16:57.034Z,1176
2022-11-06T22:21:58.745Z,1254.6383
2022-11-06T22:27:00.433Z,1227.33333
2022-11-06T22:32:02.221Z,1151.84314
2022-11-06T22:37:03.818Z,1024.70175
2022-11-06T22:42:05.575Z,970.66667
2022-11-06T22:47:07.596Z,937.54839
2022-11-06T22:52:09.235Z,937.54839
2022-11-06T22:57:10.866Z,921.77778
2022-11-06T23:02:12.538Z,921.77778
2022-11-06T23:07:14.262Z,921.77778
2022-11-06T23:12:15.938Z,921.77778
2022-11-06T23:17:17.569Z,937.54839
2022-11-06T23:22:19.198Z,937.54839
2022-11-06T23:27:20.810Z,988.0678
2022-11-06T23:32:22.539Z,1024.70175
2022-11-06T23:37:24.151Z,1006.06897
2022-11-06T23:42:25.774Z,1151.84314
2022-11-06T23:47:27.510Z,970.66667
2022-11-06T23:52:29.080Z,988.0678
2022-11-06T23:57:30.712Z,1064
